createdAt,value
2022-09-20T00:03:30.766Z,1.60
2022-09-20T00:05:53.867Z,1.13
2022-09-20T00:08:17.288Z,1.10
2022-09-20T00:10:40.463Z,1.40
2022-09-20T00:13:03.666Z,1.40
2022-09-20T00:15:28.195Z,1.08
2022-09-20T00:20:14.338Z,0.90
2022-09-20T00:22:37.542Z,1.17
2022-09-20T00:25:00.628Z,1.33
2022-09-20T00:27:23.838Z,0.80
2022-09-20T00:29:47.145Z,0.90
2022-09-20T00:32:11.742Z,0.98
2022-09-20T00:34:52.123Z,0.90
2022-09-20T00:37:15.276Z,0.70
2022-09-20T00:39:38.449Z,1.08
2022-09-20T00:42:01.613Z,1.08
2022-09-20T00:44:44.548Z,0.65
2022-09-20T00:47:07.845Z,0.93
2022-09-20T00:49:32.377Z,1.05
2022-09-20T00:54:20.733Z,0.73
2022-09-20T00:56:44.344Z,0.60
2022-09-20T00:59:09.741Z,1.02
2022-09-20T01:01:33.014Z,0.77
2022-09-20T01:03:56.268Z,0.80
2022-09-20T01:06:20.794Z,0.52
2022-09-20T01:11:07.990Z,0.98
2022-09-20T01:13:31.234Z,0.40
2022-09-20T01:15:54.395Z,1.02
2022-09-20T01:18:17.617Z,0.50
2022-09-20T01:20:42.062Z,0.40
2022-09-20T01:26:00.113Z,1.42
2022-09-20T01:28:24.758Z,0.68
2022-09-20T01:30:49.819Z,0.60
2022-09-20T01:33:15.562Z,0.47
2022-09-20T01:35:38.714Z,0.75
2022-09-20T01:38:10.985Z,0.77
2022-09-20T01:40:37.555Z,0.80
2022-09-20T01:43:04.156Z,0.77
2022-09-20T01:45:29.862Z,0.70
2022-09-20T01:47:58.610Z,1.08
2022-09-20T01:50:26.717Z,0.90
2022-09-20T01:53:35.541Z,0.30
2022-09-20T01:56:26.758Z,0.75
2022-09-20T01:59:24.159Z,0.73
2022-09-20T02:02:18.638Z,0.60
2022-09-20T02:05:18.940Z,0.40
2022-09-20T02:08:09.368Z,0.63
2022-09-20T02:10:40.324Z,0.50
2022-09-20T02:13:05.128Z,0.70
2022-09-20T02:15:42.829Z,0.43
2022-09-20T02:18:12.669Z,0.60
2022-09-20T02:20:40.485Z,0.52
2022-09-20T02:23:23.163Z,0.80
2022-09-20T02:26:04.192Z,0.40
2022-09-20T02:28:32.881Z,0.60
2022-09-20T02:30:57.857Z,0.57
2022-09-20T02:33:35.730Z,0.35
2022-09-20T02:36:09.767Z,0.40
2022-09-20T02:38:47.527Z,0.50
2022-09-20T02:41:30.958Z,0.60
2022-09-20T02:43:57.561Z,0.55
2022-09-20T02:46:23.781Z,0.52
2022-09-20T02:48:50.177Z,0.52
2022-09-20T02:51:17.938Z,0.45
2022-09-20T02:53:44.489Z,0.73
2022-09-20T02:56:12.026Z,0.60
2022-09-20T02:58:41.305Z,0.50
2022-09-20T03:01:07.066Z,0.55
2022-09-20T03:03:35.947Z,0.60
2022-09-20T03:06:09.449Z,0.40
2022-09-20T03:08:36.134Z,0.50
2022-09-20T03:11:04.935Z,0.70
2022-09-20T03:13:33.415Z,0.60
2022-09-20T03:16:02.379Z,0.45
2022-09-20T03:18:32.752Z,0.73
2022-09-20T03:21:01.712Z,0.43
2022-09-20T03:23:37.071Z,0.38
2022-09-20T03:26:04.147Z,0.50
2022-09-20T03:28:43.634Z,0.40
2022-09-20T03:31:24.055Z,0.43
2022-09-20T03:33:51.128Z,0.70
2022-09-20T03:36:24.965Z,0.88
2022-09-20T03:38:56.929Z,0.75
2022-09-20T03:41:34.817Z,0.40
2022-09-20T03:44:12.038Z,0.65
2022-09-20T03:46:37.127Z,1.05
2022-09-20T03:49:31.065Z,0.70
2022-09-20T03:51:59.673Z,0.73
2022-09-20T03:54:43.962Z,0.60
2022-09-20T03:57:36.394Z,0.80
2022-09-20T04:00:10.001Z,0.75
2022-09-20T04:02:40.068Z,0.73
2022-09-20T04:05:04.811Z,0.80
2022-09-20T04:10:03.391Z,1.00
2022-09-20T04:12:30.819Z,0.80
2022-09-20T04:14:55.837Z,0.98
2022-09-20T04:17:26.540Z,0.80
2022-09-20T04:19:52.168Z,0.93
2022-09-20T04:22:16.353Z,1.00
2022-09-20T04:24:43.142Z,1.42
2022-09-20T04:27:09.709Z,1.10
2022-09-20T04:29:36.100Z,1.10
2022-09-20T04:32:03.850Z,1.30
2022-09-20T04:34:49.543Z,1.50
2022-09-20T04:37:19.556Z,0.85
2022-09-20T04:39:44.441Z,1.40
2022-09-20T04:42:45.063Z,1.13
2022-09-20T04:45:35.335Z,1.63
2022-09-20T04:48:39.231Z,1.45
2022-09-20T04:51:39.925Z,1.92
2022-09-20T04:54:39.514Z,1.17
2022-09-20T04:57:18.914Z,1.40
2022-09-20T04:59:46.825Z,1.42
2022-09-20T05:02:32.290Z,1.58
2022-09-20T05:05:29.753Z,1.27
2022-09-20T05:08:37.174Z,1.58
2022-09-20T05:11:18.518Z,1.35
2022-09-20T05:13:54.914Z,0.98
2022-09-20T05:16:21.053Z,1.25
2022-09-20T05:19:14.804Z,1.35
2022-09-20T05:21:51.629Z,0.90
2022-09-20T05:24:22.060Z,0.98
2022-09-20T05:26:52.008Z,1.77
2022-09-20T05:29:19.665Z,2.10
2022-09-20T05:31:44.047Z,1.15
2022-09-20T05:34:12.935Z,0.98
2022-09-20T05:36:41.634Z,1.23
2022-09-20T05:39:13.703Z,0.85
2022-09-20T05:41:39.590Z,1.08
2022-09-20T05:44:06.242Z,1.02
2022-09-20T05:46:37.049Z,0.77
2022-09-20T05:49:05.417Z,0.88
2022-09-20T05:51:42.340Z,1.15
2022-09-20T05:54:25.230Z,1.13
2022-09-20T05:56:50.808Z,0.60
2022-09-20T05:59:33.634Z,1.27
2022-09-20T06:02:11.691Z,1.27
2022-09-20T06:04:37.251Z,1.05
2022-09-20T06:07:04.136Z,0.98
2022-09-20T06:09:32.340Z,0.80
2022-09-20T06:12:16.310Z,1.55
2022-09-20T06:14:43.281Z,1.50
2022-09-20T06:17:12.051Z,1.05
2022-09-20T06:19:37.922Z,1.10
2022-09-20T06:22:03.931Z,1.40
2022-09-20T06:24:35.466Z,2.40
2022-09-20T06:26:58.721Z,1.02
2022-09-20T06:29:25.891Z,1.02
2022-09-20T06:31:49.179Z,1.50
2022-09-20T06:34:14.666Z,1.40
2022-09-20T06:36:56.548Z,0.95
2022-09-20T06:39:40.808Z,0.82
2022-09-20T06:42:04.249Z,0.98
2022-09-20T06:44:27.417Z,1.17
2022-09-20T06:46:53.638Z,1.10
2022-09-20T06:49:18.169Z,1.23
2022-09-20T06:51:41.467Z,1.00
2022-09-20T06:54:04.811Z,1.17
2022-09-20T06:56:29.710Z,1.08
2022-09-20T06:58:53.293Z,1.05
2022-09-20T07:01:26.577Z,1.58
2022-09-20T07:03:52.751Z,1.10
2022-09-20T07:06:19.872Z,1.35
2022-09-20T07:08:43.449Z,1.45
2022-09-20T07:11:09.383Z,0.90
2022-09-20T07:13:32.687Z,0.68
2022-09-20T07:16:01.532Z,1.27
2022-09-20T07:18:24.697Z,1.02
2022-09-20T07:20:47.881Z,1.17
2022-09-20T07:23:12.400Z,1.30
2022-09-20T07:27:58.817Z,1.30
2022-09-20T07:30:22.109Z,1.35
2022-09-20T07:32:45.317Z,1.85
2022-09-20T07:35:09.553Z,1.17
2022-09-20T07:37:36.864Z,1.88
2022-09-20T07:40:02.207Z,1.08
2022-09-20T07:42:25.540Z,1.65
2022-09-20T07:44:48.998Z,1.33
2022-09-20T07:47:14.286Z,0.88
2022-09-20T07:49:37.598Z,2.88
2022-09-20T07:52:00.813Z,1.02
2022-09-20T07:54:24.187Z,1.67
2022-09-20T07:56:48.962Z,1.63
2022-09-20T07:59:12.322Z,1.15
2022-09-20T08:01:35.607Z,0.93
2022-09-20T08:03:58.903Z,1.73
2022-09-20T08:06:22.353Z,0.75
2022-09-20T08:08:45.681Z,1.52
2022-09-20T08:11:09.983Z,0.75
2022-09-20T08:16:20.487Z,1.73
2022-09-20T08:18:47.460Z,1.17
2022-09-20T08:21:11.676Z,0.93
2022-09-20T08:23:36.157Z,1.40
2022-09-20T08:28:22.392Z,1.27
2022-09-20T08:30:47.040Z,0.63
2022-09-20T08:35:38.168Z,1.20
2022-09-20T08:40:45.194Z,0.65
2022-09-20T08:43:09.067Z,0.50
2022-09-20T08:45:35.500Z,0.98
2022-09-20T08:48:01.641Z,0.80
2022-09-20T08:50:24.851Z,0.88
2022-09-20T08:52:49.416Z,0.55
2022-09-20T08:57:40.292Z,0.98
2022-09-20T09:00:04.706Z,0.68
2022-09-20T09:02:31.055Z,0.75
2022-09-20T09:04:56.088Z,0.80
2022-09-20T09:07:21.800Z,1.08
2022-09-20T09:09:46.625Z,1.00
2022-09-20T09:12:16.409Z,0.90
2022-09-20T09:14:55.121Z,0.80
2022-09-20T09:17:19.432Z,0.80
2022-09-20T09:19:47.602Z,0.40
2022-09-20T09:22:12.205Z,0.65
2022-09-20T09:24:35.515Z,0.73
2022-09-20T09:27:07.625Z,0.77
2022-09-20T09:29:34.773Z,0.75
2022-09-20T09:31:58.261Z,0.60
2022-09-20T09:34:26.417Z,0.75
2022-09-20T09:36:49.713Z,0.65
2022-09-20T09:39:22.168Z,0.60
2022-09-20T09:41:46.458Z,0.52
2022-09-20T09:44:22.901Z,1.40
2022-09-20T09:46:46.115Z,0.65
2022-09-20T09:49:12.862Z,0.50
2022-09-20T09:51:36.383Z,0.88
2022-09-20T09:53:59.681Z,0.47
2022-09-20T09:56:35.286Z,0.40
2022-09-20T09:59:24.429Z,0.60
2022-09-20T10:01:53.394Z,0.57
2022-09-20T10:04:18.734Z,0.57
2022-09-20T10:06:45.392Z,0.50
2022-09-20T10:09:28.345Z,0.70
2022-09-20T10:11:59.900Z,0.50
2022-09-20T10:14:30.456Z,0.40
2022-09-20T10:17:02.308Z,0.63
2022-09-20T10:19:32.135Z,0.57
2022-09-20T10:21:57.369Z,0.40
2022-09-20T10:24:31.136Z,0.50
2022-09-20T10:27:19.330Z,0.45
2022-09-20T10:29:49.811Z,0.60
2022-09-20T10:32:21.385Z,0.60
2022-09-20T10:34:54.011Z,0.50
2022-09-20T10:37:19.197Z,0.43
2022-09-20T10:39:42.408Z,0.63
2022-09-20T10:42:27.139Z,0.90
2022-09-20T10:45:04.417Z,0.82
2022-09-20T10:47:29.410Z,1.50
2022-09-20T10:49:57.368Z,0.75
2022-09-20T10:52:31.693Z,0.80
2022-09-20T10:55:09.383Z,0.60
2022-09-20T10:57:48.739Z,0.98
2022-09-20T11:00:21.256Z,0.90
2022-09-20T11:02:49.695Z,1.00
2022-09-20T11:05:31.541Z,0.60
2022-09-20T11:08:00.284Z,0.77
2022-09-20T11:10:25.518Z,0.60
2022-09-20T11:12:51.388Z,1.17
2022-09-20T11:15:18.537Z,0.77
2022-09-20T11:17:43.013Z,0.73
2022-09-20T11:20:08.724Z,0.38
2022-09-20T11:22:35.393Z,0.50
2022-09-20T11:25:03.019Z,0.68
2022-09-20T11:27:29.706Z,0.45
2022-09-20T11:29:54.728Z,0.55
2022-09-20T11:32:22.171Z,0.77
2022-09-20T11:34:53.638Z,0.60
2022-09-20T11:37:16.874Z,0.60
2022-09-20T11:39:41.043Z,1.02
2022-09-20T11:42:05.220Z,0.35
2022-09-20T11:44:28.559Z,0.40
2022-09-20T11:46:53.507Z,0.38
2022-09-20T11:49:19.714Z,0.52
2022-09-20T11:52:11.251Z,0.65
2022-09-20T11:55:16.370Z,0.60
2022-09-20T11:57:39.658Z,0.40
2022-09-20T12:00:04.233Z,0.95
2022-09-20T12:02:36.573Z,0.40
2022-09-20T12:07:26.106Z,0.52
2022-09-20T12:09:54.178Z,0.40
2022-09-20T12:12:20.230Z,0.60
2022-09-20T12:14:43.427Z,0.55
2022-09-20T12:17:07.267Z,0.73
2022-09-20T12:19:40.153Z,0.80
2022-09-20T12:22:29.556Z,0.43
2022-09-20T12:25:14.433Z,0.47
2022-09-20T12:27:58.231Z,1.15
2022-09-20T12:30:22.345Z,0.60
2022-09-20T12:32:56.474Z,0.57
2022-09-20T12:35:53.314Z,0.63
2022-09-20T12:38:40.230Z,0.82
2022-09-20T12:41:09.112Z,0.45
2022-09-20T12:43:32.634Z,0.30
2022-09-20T12:45:59.912Z,0.65
2022-09-20T12:48:26.201Z,1.45
2022-09-20T12:51:19.937Z,0.40
2022-09-20T12:53:45.221Z,0.52
2022-09-20T12:56:08.591Z,0.40
2022-09-20T12:58:45.198Z,0.75
2022-09-20T13:01:29.890Z,0.60
2022-09-20T13:03:53.242Z,0.50
2022-09-20T13:06:24.233Z,0.70
2022-09-20T13:08:49.317Z,0.40
2022-09-20T13:11:17.449Z,0.55
2022-09-20T13:13:42.239Z,0.45
2022-09-20T13:16:06.408Z,0.50
2022-09-20T13:18:29.767Z,0.77
2022-09-20T13:20:53.905Z,0.60
2022-09-20T13:23:20.431Z,0.70
2022-09-20T13:25:45.091Z,0.90
2022-09-20T13:30:32.726Z,0.60
2022-09-20T13:32:56.902Z,0.52
2022-09-20T13:35:21.551Z,0.50
2022-09-20T13:37:49.374Z,0.57
2022-09-20T13:40:18.134Z,0.50
2022-09-20T13:42:44.061Z,0.70
2022-09-20T13:45:08.156Z,0.55
2022-09-20T13:47:31.934Z,0.43
2022-09-20T13:50:00.312Z,0.52
2022-09-20T13:52:27.176Z,0.40
2022-09-20T13:54:50.383Z,0.40
2022-09-20T13:57:16.614Z,0.47
2022-09-20T13:59:44.991Z,0.82
2022-09-20T14:02:14.254Z,0.50
2022-09-20T14:04:37.430Z,1.00
2022-09-20T14:07:00.905Z,0.35
2022-09-20T14:09:28.524Z,0.43
2022-09-20T14:11:51.725Z,0.60
2022-09-20T14:14:17.535Z,0.65
2022-09-20T14:16:46.834Z,0.52
2022-09-20T14:19:09.979Z,1.38
2022-09-20T14:21:33.891Z,0.47
2022-09-20T14:23:58.354Z,0.70
2022-09-20T14:26:26.344Z,0.60
2022-09-20T14:28:49.625Z,0.30
2022-09-20T14:31:14.507Z,0.30
2022-09-20T14:33:41.202Z,0.30
2022-09-20T14:36:04.511Z,0.43
2022-09-20T14:38:27.640Z,0.70
2022-09-20T14:40:51.816Z,1.15
2022-09-20T14:43:24.280Z,0.70
2022-09-20T14:45:53.416Z,0.80
2022-09-20T14:48:35.142Z,0.60
2022-09-20T14:51:22.581Z,1.17
2022-09-20T14:53:45.940Z,0.70
2022-09-20T14:56:11.444Z,0.68
2022-09-20T14:58:34.958Z,0.75
2022-09-20T15:00:59.532Z,0.80
2022-09-20T15:03:26.672Z,0.43
2022-09-20T15:05:49.978Z,1.02
2022-09-20T15:08:15.546Z,1.08
2022-09-20T15:10:38.678Z,1.65
2022-09-20T15:13:01.892Z,0.85
2022-09-20T15:15:25.032Z,0.70
2022-09-20T15:17:48.876Z,1.25
2022-09-20T15:20:19.591Z,0.60
2022-09-20T15:22:46.533Z,0.82
2022-09-20T15:25:14.280Z,0.52
2022-09-20T15:27:37.656Z,0.60
2022-09-20T15:30:02.837Z,0.82
2022-09-20T15:32:26.115Z,0.68
2022-09-20T15:34:49.251Z,0.70
2022-09-20T15:37:12.481Z,0.80
2022-09-20T15:39:35.655Z,0.70
2022-09-20T15:42:00.210Z,1.05
2022-09-20T15:46:46.653Z,0.80
2022-09-20T15:49:11.333Z,0.80
2022-09-20T15:54:00.150Z,0.82
2022-09-20T15:56:23.916Z,0.88
2022-09-20T15:58:50.286Z,1.38
2022-09-20T16:01:15.608Z,1.33
2022-09-20T16:03:38.923Z,1.20
2022-09-20T16:06:04.509Z,0.90
2022-09-20T16:08:28.661Z,1.55
2022-09-20T16:10:57.482Z,0.65
2022-09-20T16:13:20.663Z,0.90
2022-09-20T16:15:45.308Z,1.08
2022-09-20T16:21:08.078Z,2.00
2022-09-20T16:23:31.249Z,1.50
2022-09-20T16:25:55.037Z,1.00
2022-09-20T16:28:18.202Z,1.03
2022-09-20T16:30:41.492Z,1.35
2022-09-20T16:33:06.306Z,1.17
2022-09-20T16:35:29.538Z,1.13
2022-09-20T16:37:52.676Z,1.35
2022-09-20T16:40:16.138Z,1.33
2022-09-20T16:42:39.284Z,1.70
2022-09-20T16:45:02.462Z,1.58
2022-09-20T16:47:26.293Z,1.55
2022-09-20T16:49:51.645Z,1.80
2022-09-20T16:52:14.783Z,1.80
2022-09-20T16:54:38.290Z,1.45
2022-09-20T16:57:01.453Z,1.50
2022-09-20T16:59:24.905Z,1.85
2022-09-20T17:01:48.378Z,2.05
2022-09-20T17:04:13.531Z,1.70
2022-09-20T17:06:38.700Z,1.98
2022-09-20T17:09:01.946Z,1.40
2022-09-20T17:11:26.282Z,1.88
2022-09-20T17:13:51.435Z,2.03
2022-09-20T17:16:15.459Z,1.85
2022-09-20T17:18:41.914Z,1.83
2022-09-20T17:21:06.245Z,1.75
2022-09-20T17:23:32.188Z,1.67
2022-09-20T17:26:04.452Z,1.98
2022-09-20T17:28:27.618Z,2.10
2022-09-20T17:30:50.880Z,1.95
2022-09-20T17:33:14.870Z,1.45
2022-09-20T17:35:38.003Z,2.40
2022-09-20T17:38:01.204Z,1.33
2022-09-20T17:40:25.790Z,1.80
2022-09-20T17:42:49.015Z,1.90
2022-09-20T17:45:12.454Z,1.45
2022-09-20T17:47:35.676Z,1.52
2022-09-20T17:49:58.835Z,1.63
2022-09-20T17:52:22.002Z,1.85
2022-09-20T17:54:45.261Z,2.00
2022-09-20T17:57:09.767Z,2.20
2022-09-20T18:01:57.613Z,1.25
2022-09-20T18:04:24.492Z,3.10
2022-09-20T18:06:48.491Z,2.05
2022-09-20T18:09:12.887Z,2.05
2022-09-20T18:14:01.355Z,2.80
2022-09-20T18:16:24.905Z,2.25
2022-09-20T18:18:48.106Z,3.63
2022-09-20T18:21:13.148Z,2.58
2022-09-20T18:23:36.281Z,2.53
2022-09-20T18:26:17.086Z,2.60
2022-09-20T18:28:40.279Z,3.10
2022-09-20T18:31:05.092Z,3.92
2022-09-20T18:33:28.302Z,2.78
2022-09-20T18:35:51.476Z,3.25
2022-09-20T18:38:17.307Z,2.63
2022-09-20T18:40:42.013Z,2.97
2022-09-20T18:43:05.463Z,2.17
2022-09-20T18:45:28.961Z,2.85
2022-09-20T18:47:59.655Z,2.50
2022-09-20T18:50:24.506Z,2.00
2022-09-20T18:52:47.949Z,2.45
2022-09-20T18:55:12.006Z,2.03
2022-09-20T18:57:35.670Z,2.13
2022-09-20T19:00:03.604Z,1.33
2022-09-20T19:02:55.402Z,1.52
2022-09-20T19:05:28.323Z,2.45
2022-09-20T19:08:00.234Z,1.90
2022-09-20T19:10:26.285Z,1.95
2022-09-20T19:12:51.383Z,2.30
2022-09-20T19:15:35.522Z,1.98
2022-09-20T19:18:07.391Z,1.98
2022-09-20T19:20:33.183Z,1.67
2022-09-20T19:23:01.750Z,2.25
2022-09-20T19:25:26.340Z,1.67
2022-09-20T19:30:15.030Z,1.67
2022-09-20T19:32:38.898Z,1.67
2022-09-20T19:35:04.310Z,2.42
2022-09-20T19:37:31.669Z,2.05
2022-09-20T19:40:02.198Z,2.08
2022-09-20T19:42:28.703Z,2.28
2022-09-20T19:44:56.341Z,2.13
2022-09-20T19:47:25.474Z,1.52
2022-09-20T19:49:52.694Z,2.50
2022-09-20T19:52:17.493Z,1.35
2022-09-20T19:54:45.771Z,2.00
2022-09-20T19:57:12.717Z,2.22
2022-09-20T19:59:36.672Z,2.03
2022-09-20T20:02:00.575Z,2.13
2022-09-20T20:04:24.348Z,2.83
2022-09-20T20:06:52.723Z,2.60
2022-09-20T20:09:20.226Z,2.60
2022-09-20T20:11:45.957Z,1.95
2022-09-20T20:14:15.348Z,2.03
2022-09-20T20:16:44.305Z,2.00
2022-09-20T20:19:14.023Z,1.80
2022-09-20T20:21:41.331Z,2.85
2022-09-20T20:24:07.546Z,2.38
2022-09-20T20:26:32.119Z,3.28
2022-09-20T20:28:55.302Z,2.03
2022-09-20T20:31:18.486Z,2.30
2022-09-20T20:33:41.745Z,1.88
2022-09-20T20:36:06.162Z,1.73
2022-09-20T20:38:30.142Z,1.95
2022-09-20T20:41:00.933Z,1.83
2022-09-20T20:43:26.107Z,2.08
2022-09-20T20:45:51.130Z,1.77
2022-09-20T20:48:14.407Z,2.60
2022-09-20T20:50:37.738Z,1.55
2022-09-20T20:53:01.022Z,1.92
2022-09-20T20:55:24.692Z,1.60
2022-09-20T20:57:54.321Z,1.40
2022-09-20T21:00:18.990Z,1.33
2022-09-20T21:02:42.142Z,1.65
2022-09-20T21:05:07.028Z,1.35
2022-09-20T21:07:30.109Z,1.60
2022-09-20T21:09:53.526Z,1.20
2022-09-20T21:12:16.669Z,1.30
2022-09-20T21:14:41.080Z,1.40
2022-09-20T21:17:05.611Z,1.10
2022-09-20T21:21:51.700Z,1.60
2022-09-20T21:24:17.279Z,1.52
2022-09-20T21:26:40.754Z,1.98
2022-09-20T21:29:04.825Z,1.63
2022-09-20T21:31:28.640Z,1.85
2022-09-20T21:33:53.246Z,1.77
2022-09-20T21:38:40.061Z,1.50
2022-09-20T21:41:07.546Z,1.77
2022-09-20T21:43:30.942Z,2.42
2022-09-20T21:45:57.127Z,2.15
2022-09-20T21:48:20.370Z,1.50
2022-09-20T21:50:45.029Z,1.77
2022-09-20T21:53:08.202Z,1.35
2022-09-20T21:55:31.527Z,1.60
2022-09-20T21:57:54.713Z,1.77
2022-09-20T22:00:17.921Z,1.48
2022-09-20T22:02:41.224Z,1.38
2022-09-20T22:05:04.611Z,2.10
2022-09-20T22:07:29.153Z,1.45
2022-09-20T22:12:15.257Z,1.83
2022-09-20T22:14:39.984Z,2.08
2022-09-20T22:17:03.127Z,1.67
2022-09-20T22:19:26.293Z,1.73
2022-09-20T22:21:50.985Z,1.67
2022-09-20T22:26:39.803Z,1.90
2022-09-20T22:29:03.079Z,2.30
2022-09-20T22:31:27.302Z,2.08
2022-09-20T22:33:52.104Z,1.95
2022-09-20T22:36:16.401Z,1.70
2022-09-20T22:38:39.555Z,1.95
2022-09-20T22:41:04.082Z,1.88
2022-09-20T22:45:50.373Z,2.15
2022-09-20T22:48:13.533Z,2.13
2022-09-20T22:50:36.678Z,1.65
2022-09-20T22:52:59.964Z,2.17
2022-09-20T22:55:24.280Z,1.88
2022-09-20T22:57:53.932Z,1.80
2022-09-20T23:00:17.222Z,1.77
2022-09-20T23:02:40.405Z,1.45
2022-09-20T23:05:03.666Z,1.30
2022-09-20T23:07:26.810Z,1.77
2022-09-20T23:09:50.150Z,2.15
2022-09-20T23:12:13.289Z,1.40
2022-09-20T23:14:37.898Z,1.55
2022-09-20T23:19:24.110Z,1.60
2022-09-20T23:21:47.252Z,1.90
2022-09-20T23:24:11.800Z,1.90
2022-09-20T23:28:59.691Z,2.28
2022-09-20T23:33:49.733Z,1.75
2022-09-20T23:36:12.896Z,1.80
2022-09-20T23:38:36.133Z,2.10
2022-09-20T23:41:03.668Z,4.60
2022-09-20T23:43:26.845Z,2.17
2022-09-20T23:45:51.216Z,2.35
2022-09-20T23:48:15.796Z,2.42
2022-09-20T23:50:39.124Z,3.22
2022-09-20T23:53:02.262Z,2.80
2022-09-20T23:55:25.492Z,2.35
2022-09-20T23:57:50.706Z,2.83
